createdAt,value
2018-03-15T00:02:01.900Z,35.50
2018-03-15T00:04:34.511Z,36.40
2018-03-15T00:07:02.285Z,34.50
2018-03-15T00:09:30.099Z,32.70
2018-03-15T00:11:57.843Z,35.30
2018-03-15T00:14:25.675Z,40.60
2018-03-15T00:16:54.238Z,36.40
2018-03-15T00:19:21.998Z,36.40
2018-03-15T00:21:49.772Z,35.40
2018-03-15T00:24:17.572Z,32.40
2018-03-15T00:26:45.368Z,34.60
2018-03-15T00:29:13.187Z,32.20
2018-03-15T00:31:40.993Z,34.10
2018-03-15T00:34:08.778Z,33.70
2018-03-15T00:36:36.543Z,36.50
2018-03-15T00:39:04.384Z,34.50
2018-03-15T00:41:32.126Z,35.70
2018-03-15T00:43:59.922Z,32.90
2018-03-15T00:46:27.702Z,32.80
2018-03-15T00:48:55.438Z,33.20
2018-03-15T00:51:23.231Z,33.10
2018-03-15T00:53:52.027Z,34.60
2018-03-15T00:56:19.844Z,32.80
2018-03-15T00:58:47.578Z,36.00
2018-03-15T01:01:15.322Z,35.50
2018-03-15T01:03:43.237Z,36.30
2018-03-15T01:06:10.983Z,35.70
2018-03-15T01:08:38.722Z,36.90
2018-03-15T01:11:06.512Z,37.50
2018-03-15T01:13:34.239Z,34.70
2018-03-15T01:16:02.738Z,37.80
2018-03-15T01:18:30.478Z,37.80
2018-03-15T01:20:58.255Z,35.80
2018-03-15T01:23:25.994Z,35.20
2018-03-15T01:25:53.754Z,34.70
2018-03-15T01:28:21.532Z,35.60
2018-03-15T01:30:49.332Z,34.40
2018-03-15T01:33:17.133Z,34.70
2018-03-15T01:35:44.957Z,35.80
2018-03-15T01:38:12.732Z,35.20
2018-03-15T01:40:40.503Z,34.30
2018-03-15T01:43:08.237Z,34.80
2018-03-15T01:45:36.025Z,34.60
2018-03-15T01:48:03.851Z,36.20
2018-03-15T01:50:31.571Z,34.60
2018-03-15T01:52:59.312Z,34.60
2018-03-15T01:55:27.097Z,34.30
2018-03-15T01:57:54.854Z,34.80
2018-03-15T02:00:22.603Z,34.40
2018-03-15T02:02:50.553Z,34.10
2018-03-15T02:05:18.331Z,35.70
2018-03-15T02:07:46.117Z,34.70
2018-03-15T02:10:13.989Z,34.00
2018-03-15T02:12:41.741Z,34.60
2018-03-15T02:15:09.488Z,36.00
2018-03-15T02:17:37.245Z,33.00
2018-03-15T02:20:05.012Z,33.10
2018-03-15T02:22:32.751Z,34.10
2018-03-15T02:25:00.516Z,34.90
2018-03-15T02:27:28.257Z,34.40
2018-03-15T02:29:55.984Z,33.90
2018-03-15T02:32:23.852Z,33.50
2018-03-15T02:34:51.582Z,34.20
2018-03-15T02:37:19.325Z,32.40
2018-03-15T02:39:47.189Z,34.90
2018-03-15T02:42:14.976Z,34.40
2018-03-15T02:44:42.711Z,33.70
2018-03-15T02:47:10.578Z,32.90
2018-03-15T02:49:39.083Z,34.30
2018-03-15T02:52:06.814Z,33.90
2018-03-15T02:54:34.605Z,34.40
2018-03-15T02:57:02.381Z,34.60
2018-03-15T02:59:30.174Z,33.30
2018-03-15T03:01:57.944Z,34.30
2018-03-15T03:04:25.742Z,34.00
2018-03-15T03:06:53.475Z,33.40
2018-03-15T03:09:21.348Z,33.80
2018-03-15T03:11:49.067Z,33.40
2018-03-15T03:14:16.819Z,33.90
2018-03-15T03:16:44.613Z,38.00
2018-03-15T03:19:12.349Z,35.70
2018-03-15T03:21:40.135Z,37.30
2018-03-15T03:24:07.935Z,40.10
2018-03-15T03:26:35.739Z,36.70
2018-03-15T03:29:03.465Z,38.40
2018-03-15T03:31:31.266Z,38.20
2018-03-15T03:33:59.075Z,38.00
2018-03-15T03:36:27.582Z,38.10
2018-03-15T03:38:55.310Z,38.10
2018-03-15T03:41:23.097Z,36.40
2018-03-15T03:43:50.901Z,35.60
2018-03-15T03:46:18.681Z,37.10
2018-03-15T03:48:46.419Z,38.40
2018-03-15T03:51:14.206Z,37.00
2018-03-15T03:53:41.928Z,37.70
2018-03-15T03:56:09.674Z,40.10
2018-03-15T03:58:37.450Z,39.60
2018-03-15T04:01:05.186Z,38.60
2018-03-15T04:03:32.967Z,39.60
2018-03-15T04:06:00.687Z,38.00
2018-03-15T04:08:28.463Z,36.90
2018-03-15T04:10:56.207Z,36.40
2018-03-15T04:13:23.941Z,36.70
2018-03-15T04:15:51.674Z,37.00
2018-03-15T04:18:19.409Z,40.20
2018-03-15T04:20:47.161Z,39.50
2018-03-15T04:23:14.878Z,40.20
2018-03-15T04:25:43.386Z,36.80
2018-03-15T04:28:11.172Z,36.90
2018-03-15T04:30:39.680Z,38.80
2018-03-15T04:33:07.419Z,38.80
2018-03-15T04:35:35.168Z,38.30
2018-03-15T04:38:02.967Z,36.30
2018-03-15T04:40:30.747Z,37.50
2018-03-15T04:42:58.535Z,38.60
2018-03-15T04:45:26.291Z,40.20
2018-03-15T04:47:55.703Z,38.20
2018-03-15T04:50:29.047Z,39.30
2018-03-15T04:52:56.847Z,38.80
2018-03-15T04:55:24.597Z,38.40
2018-03-15T04:57:53.805Z,40.70
2018-03-15T05:00:21.579Z,40.60
2018-03-15T05:02:49.299Z,39.90
2018-03-15T05:05:17.075Z,38.90
2018-03-15T05:07:44.869Z,39.50
2018-03-15T05:10:12.623Z,44.30
2018-03-15T05:12:40.457Z,38.40
2018-03-15T05:15:08.265Z,40.50
2018-03-15T05:17:36.853Z,38.30
2018-03-15T05:20:04.630Z,38.20
2018-03-15T05:22:34.846Z,42.70
2018-03-15T05:25:02.758Z,42.30
2018-03-15T05:30:04.590Z,41.40
2018-03-15T05:32:38.339Z,39.30
2018-03-15T05:35:06.833Z,39.10
2018-03-15T05:37:34.682Z,39.40
2018-03-15T05:42:35.844Z,37.30
2018-03-15T05:45:03.792Z,36.80
2018-03-15T05:47:32.385Z,36.90
2018-03-15T05:50:00.817Z,36.80
2018-03-15T05:52:28.591Z,38.50
2018-03-15T05:54:56.373Z,37.90
2018-03-15T05:57:24.163Z,36.30
2018-03-15T05:59:52.002Z,39.00
2018-03-15T06:02:19.796Z,40.90
2018-03-15T06:04:47.547Z,40.10
2018-03-15T06:07:16.646Z,38.10
2018-03-15T06:09:45.796Z,45.10
2018-03-15T06:12:13.603Z,47.30
2018-03-15T06:14:41.369Z,43.20
2018-03-15T06:17:09.131Z,40.40
2018-03-15T06:19:36.852Z,38.50
2018-03-15T06:22:04.644Z,32.60
2018-03-15T06:24:32.450Z,35.80
2018-03-15T06:27:00.961Z,44.20
2018-03-15T06:29:28.677Z,44.00
2018-03-15T06:31:56.409Z,33.90
2018-03-15T06:34:24.160Z,44.50
2018-03-15T06:36:53.453Z,33.30
2018-03-15T06:39:25.804Z,37.30
2018-03-15T06:41:53.673Z,41.20
2018-03-15T06:44:21.410Z,43.10
2018-03-15T06:46:49.235Z,43.80
2018-03-15T06:49:16.985Z,42.40
2018-03-15T06:51:44.714Z,44.70
2018-03-15T06:54:12.509Z,45.70
2018-03-15T06:56:40.251Z,40.90
2018-03-15T06:59:07.991Z,41.50
2018-03-15T07:01:35.776Z,42.30
2018-03-15T07:04:03.556Z,40.00
2018-03-15T07:06:31.345Z,38.10
2018-03-15T07:08:59.133Z,39.20
2018-03-15T07:11:26.930Z,39.60
2018-03-15T07:13:54.671Z,40.80
2018-03-15T07:16:23.335Z,40.10
2018-03-15T07:18:51.197Z,40.50
2018-03-15T07:21:19.702Z,45.20
2018-03-15T07:23:47.430Z,44.50
2018-03-15T07:26:15.288Z,42.60
2018-03-15T07:28:43.081Z,46.00
2018-03-15T07:31:10.909Z,47.40
2018-03-15T07:33:38.732Z,42.40
2018-03-15T07:36:07.228Z,44.90
2018-03-15T07:38:34.965Z,44.60
2018-03-15T07:41:02.758Z,44.60
2018-03-15T07:43:31.320Z,45.50
2018-03-15T07:45:59.078Z,45.40
2018-03-15T07:48:26.884Z,44.50
2018-03-15T07:50:54.718Z,44.50
2018-03-15T07:53:22.504Z,44.10
2018-03-15T07:55:50.350Z,44.70
2018-03-15T07:58:18.091Z,42.80
2018-03-15T08:00:45.878Z,45.50
2018-03-15T08:03:13.624Z,45.60
2018-03-15T08:05:41.430Z,46.20
2018-03-15T08:08:09.321Z,41.00
2018-03-15T08:10:37.088Z,39.30
2018-03-15T08:13:04.895Z,42.90
2018-03-15T08:15:32.655Z,43.10
2018-03-15T08:18:00.458Z,41.80
2018-03-15T08:20:28.194Z,38.10
2018-03-15T08:22:55.998Z,40.70
2018-03-15T08:25:23.876Z,40.80
2018-03-15T08:27:51.665Z,40.20
2018-03-15T08:30:19.448Z,38.20
2018-03-15T08:32:47.248Z,39.00
2018-03-15T08:35:15.075Z,38.00
2018-03-15T08:37:42.851Z,39.50
2018-03-15T08:40:10.740Z,36.60
2018-03-15T08:42:38.495Z,42.00
2018-03-15T08:45:06.317Z,36.10
2018-03-15T08:47:34.135Z,36.80
2018-03-15T08:50:01.945Z,37.90
2018-03-15T08:52:30.466Z,36.80
2018-03-15T08:54:58.212Z,36.20
2018-03-15T08:57:26.014Z,34.00
2018-03-15T08:59:53.837Z,37.90
2018-03-15T09:02:21.659Z,35.70
2018-03-15T09:04:49.460Z,36.00
2018-03-15T09:07:18.172Z,38.80
2018-03-15T09:09:46.678Z,36.20
2018-03-15T09:12:14.487Z,36.10
2018-03-15T09:14:42.274Z,36.40
2018-03-15T09:17:09.993Z,37.60
2018-03-15T09:19:37.726Z,40.30
2018-03-15T09:22:05.538Z,46.50
2018-03-15T09:24:33.320Z,39.90
2018-03-15T09:27:01.110Z,38.30
2018-03-15T09:29:28.983Z,35.10
2018-03-15T09:31:56.786Z,38.30
2018-03-15T09:34:24.564Z,35.50
2018-03-15T09:36:52.418Z,39.90
2018-03-15T09:39:20.234Z,38.40
2018-03-15T09:41:47.991Z,36.50
2018-03-15T09:44:15.821Z,37.50
2018-03-15T09:46:43.641Z,39.30
2018-03-15T09:49:11.465Z,39.90
2018-03-15T09:51:39.218Z,46.20
2018-03-15T09:54:07.050Z,40.90
2018-03-15T09:56:34.867Z,46.40
2018-03-15T09:59:02.628Z,44.40
2018-03-15T10:01:30.487Z,38.60
2018-03-15T10:03:58.340Z,41.60
2018-03-15T10:06:26.153Z,38.10
2018-03-15T10:08:53.922Z,44.50
2018-03-15T10:11:21.719Z,44.40
2018-03-15T10:13:49.509Z,45.80
2018-03-15T10:16:17.259Z,37.50
2018-03-15T10:18:45.107Z,38.70
2018-03-15T10:21:12.918Z,38.40
2018-03-15T10:23:40.771Z,37.70
2018-03-15T10:26:08.582Z,39.10
2018-03-15T10:28:36.404Z,43.50
2018-03-15T10:31:04.201Z,40.70
2018-03-15T10:33:38.565Z,45.30
2018-03-15T10:36:06.369Z,38.90
2018-03-15T10:38:34.138Z,40.20
2018-03-15T10:41:01.901Z,41.10
2018-03-15T10:43:29.674Z,43.50
2018-03-15T10:45:57.494Z,47.80
2018-03-15T10:48:25.297Z,42.60
2018-03-15T10:50:53.085Z,38.50
2018-03-15T10:53:20.847Z,38.00
2018-03-15T10:55:48.644Z,41.30
2018-03-15T10:58:16.457Z,38.20
2018-03-15T11:00:49.902Z,43.60
2018-03-15T11:03:17.720Z,41.00
2018-03-15T11:05:48.249Z,39.20
2018-03-15T11:08:22.334Z,43.70
2018-03-15T11:10:50.091Z,43.70
2018-03-15T11:13:17.897Z,43.70
2018-03-15T11:15:46.525Z,46.50
2018-03-15T11:18:14.295Z,46.50
2018-03-15T11:20:42.105Z,43.30
2018-03-15T11:23:10.738Z,45.00
2018-03-15T11:25:38.557Z,45.00
2018-03-15T11:28:06.360Z,44.30
2018-03-15T11:30:34.164Z,44.70
2018-03-15T11:33:01.962Z,47.80
2018-03-15T11:35:29.776Z,46.70
2018-03-15T11:37:57.543Z,46.10
2018-03-15T11:40:25.362Z,45.70
2018-03-15T11:42:53.218Z,46.00
2018-03-15T11:45:21.077Z,47.10
2018-03-15T11:47:48.866Z,45.70
2018-03-15T11:50:16.715Z,44.60
2018-03-15T11:52:44.511Z,45.00
2018-03-15T11:55:12.271Z,45.30
2018-03-15T11:57:40.076Z,43.60
2018-03-15T12:00:07.876Z,45.20
2018-03-15T12:02:35.655Z,41.60
2018-03-15T12:05:03.468Z,44.00
2018-03-15T12:07:31.369Z,47.50
2018-03-15T12:09:59.145Z,47.40
2018-03-15T12:12:26.932Z,47.90
2018-03-15T12:14:54.771Z,48.50
2018-03-15T12:17:22.638Z,47.90
2018-03-15T12:19:50.427Z,47.40
2018-03-15T12:22:18.162Z,48.10
2018-03-15T12:27:19.959Z,45.40
2018-03-15T12:29:47.723Z,46.80
2018-03-15T12:32:15.524Z,48.00
2018-03-15T12:34:43.321Z,47.40
2018-03-15T12:37:11.834Z,49.00
2018-03-15T12:39:39.676Z,48.90
2018-03-15T12:42:07.504Z,48.10
2018-03-15T12:44:35.244Z,48.90
2018-03-15T12:47:03.061Z,49.00
2018-03-15T12:49:30.887Z,43.90
2018-03-15T12:51:58.646Z,46.20
2018-03-15T12:54:26.819Z,48.00
2018-03-15T12:56:54.656Z,46.30
2018-03-15T12:59:22.469Z,47.70
2018-03-15T13:01:50.357Z,48.80
2018-03-15T13:04:18.109Z,48.70
2018-03-15T13:06:45.922Z,47.90
2018-03-15T13:09:13.803Z,49.20
2018-03-15T13:11:41.626Z,48.90
2018-03-15T13:14:09.901Z,48.00
2018-03-15T13:16:37.677Z,48.50
2018-03-15T13:19:06.390Z,48.30
2018-03-15T13:21:34.214Z,48.00
2018-03-15T13:24:01.944Z,48.00
2018-03-15T13:26:29.715Z,47.70
2018-03-15T13:28:57.536Z,47.40
2018-03-15T13:31:25.447Z,47.60
2018-03-15T13:33:54.032Z,47.80
2018-03-15T13:36:21.858Z,47.70
2018-03-15T13:38:49.596Z,47.60
2018-03-15T13:41:17.403Z,47.80
2018-03-15T13:43:45.224Z,47.80
2018-03-15T13:46:12.993Z,48.00
2018-03-15T13:48:42.276Z,47.90
2018-03-15T13:51:10.105Z,47.80
2018-03-15T13:53:37.909Z,47.60
2018-03-15T13:56:06.435Z,47.50
2018-03-15T13:58:34.209Z,47.30
2018-03-15T14:01:02.288Z,47.40
2018-03-15T14:03:30.944Z,47.40
2018-03-15T14:05:58.736Z,47.60
2018-03-15T14:08:26.630Z,47.60
2018-03-15T14:10:54.443Z,47.50
2018-03-15T14:13:22.568Z,47.50
2018-03-15T14:15:51.118Z,47.50
2018-03-15T14:18:18.915Z,47.30
2018-03-15T14:20:46.747Z,47.90
2018-03-15T14:23:14.673Z,47.80
2018-03-15T14:25:43.285Z,47.90
2018-03-15T14:28:11.074Z,47.80
2018-03-15T14:30:38.852Z,47.70
2018-03-15T14:33:06.624Z,47.60
2018-03-15T14:35:35.154Z,48.00
2018-03-15T14:38:02.972Z,47.90
2018-03-15T14:40:30.823Z,47.90
2018-03-15T14:42:58.689Z,47.90
2018-03-15T14:45:26.480Z,48.20
2018-03-15T14:47:54.238Z,47.60
2018-03-15T14:50:22.039Z,47.60
2018-03-15T14:52:49.826Z,48.00
2018-03-15T14:55:17.630Z,47.80
2018-03-15T14:57:45.438Z,47.50
2018-03-15T15:00:13.198Z,46.90
2018-03-15T15:02:41.002Z,46.90
2018-03-15T15:05:08.784Z,46.80
2018-03-15T15:07:36.583Z,47.30
2018-03-15T15:10:04.443Z,47.50
2018-03-15T15:12:32.181Z,47.20
2018-03-15T15:15:00.760Z,47.60
2018-03-15T15:17:28.512Z,47.50
2018-03-15T15:19:56.268Z,47.60
2018-03-15T15:22:24.039Z,47.50
2018-03-15T15:24:51.792Z,47.30
2018-03-15T15:27:19.628Z,47.70
2018-03-15T15:29:47.416Z,47.50
2018-03-15T15:32:22.729Z,47.50
2018-03-15T15:34:50.580Z,47.10
2018-03-15T15:37:18.341Z,47.60
2018-03-15T15:39:46.152Z,47.70
2018-03-15T15:42:14.740Z,47.60
2018-03-15T15:44:42.537Z,47.50
2018-03-15T15:47:10.341Z,47.70
2018-03-15T15:49:38.069Z,47.30
2018-03-15T15:52:05.824Z,47.80
2018-03-15T15:54:33.670Z,47.30
2018-03-15T15:57:01.478Z,47.90
2018-03-15T15:59:29.255Z,47.90
2018-03-15T16:01:57.825Z,48.80
2018-03-15T16:04:25.615Z,48.20
2018-03-15T16:06:53.404Z,47.10
2018-03-15T16:09:21.154Z,47.50
2018-03-15T16:11:48.969Z,48.00
2018-03-15T16:14:16.720Z,46.90
2018-03-15T16:16:44.538Z,47.40
2018-03-15T16:19:12.288Z,48.10
2018-03-15T16:21:40.792Z,48.10
2018-03-15T16:24:08.761Z,48.10
2018-03-15T16:26:36.577Z,48.00
2018-03-15T16:29:04.351Z,47.80
2018-03-15T16:31:32.179Z,48.30
2018-03-15T16:33:59.929Z,47.50
2018-03-15T16:36:27.749Z,48.00
2018-03-15T16:38:55.490Z,47.60
2018-03-15T16:41:23.263Z,48.10
2018-03-15T16:43:51.086Z,48.00
2018-03-15T16:46:18.901Z,48.10
2018-03-15T16:48:46.703Z,48.00
2018-03-15T16:51:14.458Z,47.90
2018-03-15T16:53:42.345Z,48.20
2018-03-15T16:56:10.200Z,48.10
2018-03-15T16:58:37.964Z,47.70
2018-03-15T17:01:05.813Z,47.20
2018-03-15T17:03:33.625Z,47.20
2018-03-15T17:06:01.547Z,48.20
2018-03-15T17:08:29.296Z,48.00
2018-03-15T17:10:57.083Z,48.00
2018-03-15T17:13:24.871Z,47.90
2018-03-15T17:15:52.638Z,47.90
2018-03-15T17:18:20.374Z,46.80
2018-03-15T17:20:48.152Z,47.10
2018-03-15T17:23:15.890Z,47.00
2018-03-15T17:25:43.644Z,46.90
2018-03-15T17:28:11.368Z,46.60
2018-03-15T17:30:39.231Z,46.40
2018-03-15T17:33:06.947Z,46.40
2018-03-15T17:35:34.733Z,46.60
2018-03-15T17:38:02.547Z,46.00
2018-03-15T17:40:30.280Z,46.10
2018-03-15T17:42:58.031Z,46.50
2018-03-15T17:45:25.848Z,46.20
2018-03-15T17:47:53.644Z,46.40
2018-03-15T17:50:21.488Z,45.00
2018-03-15T17:52:49.405Z,46.00
2018-03-15T17:55:17.228Z,45.80
2018-03-15T17:57:45.021Z,45.90
2018-03-15T18:00:12.809Z,45.60
2018-03-15T18:02:40.600Z,44.20
2018-03-15T18:05:08.342Z,44.70
2018-03-15T18:07:36.598Z,45.80
2018-03-15T18:10:04.403Z,45.70
2018-03-15T18:12:32.150Z,46.10
2018-03-15T18:14:59.969Z,45.90
2018-03-15T18:17:27.742Z,46.20
2018-03-15T18:19:55.735Z,45.40
2018-03-15T18:22:26.653Z,47.80
2018-03-15T18:24:56.658Z,47.70
2018-03-15T18:27:29.623Z,48.00
2018-03-15T18:29:59.738Z,48.30
2018-03-15T18:32:28.076Z,48.00
2018-03-15T18:34:55.986Z,48.00
2018-03-15T18:37:23.826Z,49.30
2018-03-15T18:39:51.610Z,47.30
2018-03-15T18:42:20.188Z,49.30
2018-03-15T18:44:47.921Z,49.10
2018-03-15T18:47:15.793Z,48.90
2018-03-15T18:49:43.611Z,49.00
2018-03-15T18:52:11.408Z,49.60
2018-03-15T18:54:39.328Z,49.80
2018-03-15T18:57:07.125Z,48.30
2018-03-15T18:59:35.770Z,49.20
2018-03-15T19:02:04.431Z,49.70
2018-03-15T19:04:32.213Z,49.40
2018-03-15T19:07:00.148Z,48.40
2018-03-15T19:09:27.877Z,47.80
2018-03-15T19:11:57.892Z,49.70
2018-03-15T19:14:26.694Z,49.60
2018-03-15T19:16:54.567Z,49.20
2018-03-15T19:19:23.078Z,48.50
2018-03-15T19:21:51.087Z,48.40
2018-03-15T19:24:19.672Z,41.10
2018-03-15T19:26:47.588Z,48.50
2018-03-15T19:29:21.776Z,48.80
2018-03-15T19:31:51.172Z,48.00
2018-03-15T19:34:20.995Z,47.90
2018-03-15T19:36:48.864Z,44.30
2018-03-15T19:39:19.234Z,47.70
2018-03-15T19:41:52.358Z,47.20
2018-03-15T19:44:21.629Z,47.40
2018-03-15T19:46:50.971Z,47.50
2018-03-15T19:49:20.705Z,47.70
2018-03-15T19:51:50.971Z,47.60
2018-03-15T19:54:18.773Z,48.10
2018-03-15T19:56:52.879Z,44.90
2018-03-15T19:59:25.527Z,47.10
2018-03-15T20:01:53.378Z,47.00
2018-03-15T20:04:25.402Z,46.90
2018-03-15T20:06:57.339Z,46.80
2018-03-15T20:09:25.489Z,46.50
2018-03-15T20:12:00.775Z,47.10
2018-03-15T20:14:32.497Z,46.90
2018-03-15T20:17:08.365Z,46.10
2018-03-15T20:19:44.208Z,46.60
2018-03-15T20:22:16.793Z,47.20
2018-03-15T20:24:48.548Z,47.00
2018-03-15T20:27:26.264Z,46.00
2018-03-15T20:30:02.086Z,42.10
2018-03-15T20:32:40.646Z,43.80
2018-03-15T20:35:12.966Z,43.40
2018-03-15T20:37:45.058Z,45.30
2018-03-15T20:40:23.362Z,44.20
2018-03-15T20:42:51.136Z,44.10
2018-03-15T20:45:24.660Z,47.10
2018-03-15T20:48:03.858Z,47.20
2018-03-15T20:50:36.458Z,47.00
2018-03-15T20:53:13.701Z,45.40
2018-03-15T20:55:45.969Z,45.30
2018-03-15T20:58:20.640Z,46.30
2018-03-15T21:00:56.210Z,46.40
2018-03-15T21:03:31.451Z,45.30
2018-03-15T21:05:59.593Z,45.90
2018-03-15T21:08:27.394Z,46.40
2018-03-15T21:10:55.177Z,44.20
2018-03-15T21:13:22.936Z,46.20
2018-03-15T21:15:52.725Z,45.10
2018-03-15T21:18:26.135Z,46.10
2018-03-15T21:20:54.530Z,45.90
2018-03-15T21:23:25.023Z,45.60
2018-03-15T21:25:53.060Z,45.40
2018-03-15T21:28:20.816Z,42.50
2018-03-15T21:30:48.696Z,45.50
2018-03-15T21:33:16.487Z,44.00
2018-03-15T21:35:44.250Z,46.60
2018-03-15T21:38:12.131Z,44.50
2018-03-15T21:40:39.990Z,42.80
2018-03-15T21:43:07.869Z,43.20
2018-03-15T21:45:35.613Z,44.20
2018-03-15T21:48:04.176Z,43.20
2018-03-15T21:50:31.996Z,43.70
2018-03-15T21:52:59.757Z,43.80
2018-03-15T21:55:27.611Z,45.10
2018-03-15T21:57:55.433Z,44.10
2018-03-15T22:00:23.233Z,47.20
2018-03-15T22:02:50.995Z,43.80
2018-03-15T22:05:18.795Z,44.60
2018-03-15T22:07:46.602Z,44.50
2018-03-15T22:10:14.420Z,45.90
2018-03-15T22:12:42.186Z,44.10
2018-03-15T22:15:10.002Z,43.90
2018-03-15T22:17:37.794Z,44.40
2018-03-15T22:20:05.616Z,45.20
2018-03-15T22:22:34.224Z,44.70
2018-03-15T22:25:01.950Z,44.60
2018-03-15T22:27:29.688Z,45.50
2018-03-15T22:29:57.478Z,45.40
2018-03-15T22:32:25.347Z,44.90
2018-03-15T22:34:53.143Z,45.40
2018-03-15T22:37:21.726Z,47.50
2018-03-15T22:39:49.467Z,47.40
2018-03-15T22:42:17.283Z,47.80
2018-03-15T22:44:45.187Z,46.50
2018-03-15T22:47:13.690Z,46.70
2018-03-15T22:49:41.457Z,47.20
2018-03-15T22:52:09.337Z,47.30
2018-03-15T22:54:37.097Z,47.90
2018-03-15T22:57:04.847Z,47.40
2018-03-15T22:59:32.676Z,47.50
2018-03-15T23:02:00.428Z,47.10
2018-03-15T23:04:28.929Z,48.20
2018-03-15T23:06:56.844Z,48.10
2018-03-15T23:09:24.572Z,47.60
2018-03-15T23:11:52.319Z,48.60
2018-03-15T23:14:20.207Z,48.90
2018-03-15T23:16:48.001Z,48.60
2018-03-15T23:19:15.822Z,49.40
2018-03-15T23:21:43.584Z,48.50
2018-03-15T23:24:12.097Z,48.80
2018-03-15T23:26:39.840Z,48.70
2018-03-15T23:29:07.655Z,49.40
2018-03-15T23:31:35.401Z,49.00
2018-03-15T23:34:03.218Z,48.60
2018-03-15T23:36:31.070Z,49.00
2018-03-15T23:38:58.843Z,49.10
2018-03-15T23:41:26.573Z,49.20
2018-03-15T23:43:54.349Z,48.70
2018-03-15T23:46:22.128Z,49.20
2018-03-15T23:48:49.886Z,48.90
2018-03-15T23:51:17.672Z,49.10
2018-03-15T23:53:45.435Z,48.60
2018-03-15T23:56:13.182Z,49.50
2018-03-15T23:58:40.979Z,50.30
